< < Back
Terminal Aerodrome Forecast


Current Version              Previous Versions:   1  2  3  4  5  6  7  8  9  

Terminal Aerodrome Forecast

040
FTUS44 KMRX 011123
TAFTYS
TAF
KTYS 011123Z 0112/0212 03004KT P6SM SCT050
     FM020300 00000KT P6SM SCT150=

Latest METAR

861
SAUS80 KWBC 012200 RRC
MTRTYS
METAR KTYS 012153Z 06003KT 10SM FEW055 BKN250 31/16 A3009 RMK AO2 SLP176
T03110161 $


USA.gov is the U.S. government's official web portal to all federal, state and local government web resources and services.